sensor_id;sensor_type;location;lat;lon;timestamp;temperature;humidity
72106;SHT30;59975;47.646;18.318;2022-09-09T00:11:54;16.61;90.00
72106;SHT30;59975;47.646;18.318;2022-09-09T00:30:55;16.64;89.21
72106;SHT30;59975;47.646;18.318;2022-09-09T00:33:24;16.61;89.32
72106;SHT30;59975;47.646;18.318;2022-09-09T00:36:00;16.51;89.53
72106;SHT30;59975;47.646;18.318;2022-09-09T00:57:36;16.16;91.37
72106;SHT30;59975;47.646;18.318;2022-09-09T01:00:34;16.12;91.56
72106;SHT30;59975;47.646;18.318;2022-09-09T01:16:10;15.99;92.32
72106;SHT30;59975;47.646;18.318;2022-09-09T01:18:40;16.00;92.26
72106;SHT30;59975;47.646;18.318;2022-09-09T01:22:07;15.99;92.21
72106;SHT30;59975;47.646;18.318;2022-09-09T01:24:36;15.98;91.89
72106;SHT30;59975;47.646;18.318;2022-09-09T01:27:07;16.00;91.58
72106;SHT30;59975;47.646;18.318;2022-09-09T01:29:35;15.99;91.13
72106;SHT30;59975;47.646;18.318;2022-09-09T01:32:44;15.99;91.43
72106;SHT30;59975;47.646;18.318;2022-09-09T01:35:15;15.98;91.38
72106;SHT30;59975;47.646;18.318;2022-09-09T01:37:45;15.95;91.50
72106;SHT30;59975;47.646;18.318;2022-09-09T01:40:12;15.93;91.32
72106;SHT30;59975;47.646;18.318;2022-09-09T01:42:38;15.90;91.69
72106;SHT30;59975;47.646;18.318;2022-09-09T01:45:04;15.89;91.95
72106;SHT30;59975;47.646;18.318;2022-09-09T01:50:53;15.82;92.21
72106;SHT30;59975;47.646;18.318;2022-09-09T01:56:47;15.78;92.14
72106;SHT30;59975;47.646;18.318;2022-09-09T02:36:43;15.06;94.16
72106;SHT30;59975;47.646;18.318;2022-09-09T02:39:11;15.07;94.36
72106;SHT30;59975;47.646;18.318;2022-09-09T02:41:40;15.08;94.55
72106;SHT30;59975;47.646;18.318;2022-09-09T02:44:17;15.07;94.64
72106;SHT30;59975;47.646;18.318;2022-09-09T02:46:54;15.08;94.51
72106;SHT30;59975;47.646;18.318;2022-09-09T03:33:10;15.14;93.23
72106;SHT30;59975;47.646;18.318;2022-09-09T03:35:36;15.11;93.19
72106;SHT30;59975;47.646;18.318;2022-09-09T03:41:24;15.04;93.32
72106;SHT30;59975;47.646;18.318;2022-09-09T03:43:50;15.03;93.52
72106;SHT30;59975;47.646;18.318;2022-09-09T03:46:17;15.00;93.69
72106;SHT30;59975;47.646;18.318;2022-09-09T03:48:42;15.04;93.69
72106;SHT30;59975;47.646;18.318;2022-09-09T03:51:07;15.03;93.58
72106;SHT30;59975;47.646;18.318;2022-09-09T03:53:33;15.03;93.46
72106;SHT30;59975;47.646;18.318;2022-09-09T03:55:59;15.03;93.35
72106;SHT30;59975;47.646;18.318;2022-09-09T03:58:27;14.97;93.43
72106;SHT30;59975;47.646;18.318;2022-09-09T04:04:15;15.03;93.67
72106;SHT30;59975;47.646;18.318;2022-09-09T04:06:40;15.03;93.67
72106;SHT30;59975;47.646;18.318;2022-09-09T04:12:28;15.03;93.59
72106;SHT30;59975;47.646;18.318;2022-09-09T04:14:53;15.00;93.56
72106;SHT30;59975;47.646;18.318;2022-09-09T04:17:20;15.01;93.61
72106;SHT30;59975;47.646;18.318;2022-09-09T04:19:47;15.03;93.57
72106;SHT30;59975;47.646;18.318;2022-09-09T04:22:13;15.04;93.38
72106;SHT30;59975;47.646;18.318;2022-09-09T04:24:40;15.07;93.22
72106;SHT30;59975;47.646;18.318;2022-09-09T04:27:06;15.10;92.84
72106;SHT30;59975;47.646;18.318;2022-09-09T04:29:32;15.12;92.48
72106;SHT30;59975;47.646;18.318;2022-09-09T04:31:58;15.14;92.17
72106;SHT30;59975;47.646;18.318;2022-09-09T04:34:24;15.18;92.07
72106;SHT30;59975;47.646;18.318;2022-09-09T04:36:51;15.18;91.85
72106;SHT30;59975;47.646;18.318;2022-09-09T04:39:18;15.17;91.88
72106;SHT30;59975;47.646;18.318;2022-09-09T04:41:45;15.20;91.99
72106;SHT30;59975;47.646;18.318;2022-09-09T04:44:12;15.21;91.85
72106;SHT30;59975;47.646;18.318;2022-09-09T05:03:28;15.31;91.36
72106;SHT30;59975;47.646;18.318;2022-09-09T05:05:54;15.34;91.40
72106;SHT30;59975;47.646;18.318;2022-09-09T05:08:21;15.39;91.25
72106;SHT30;59975;47.646;18.318;2022-09-09T05:10:48;15.41;91.11
72106;SHT30;59975;47.646;18.318;2022-09-09T05:13:14;15.49;90.64
72106;SHT30;59975;47.646;18.318;2022-09-09T05:15:41;15.57;90.31
72106;SHT30;59975;47.646;18.318;2022-09-09T05:21:31;15.65;90.37
72106;SHT30;59975;47.646;18.318;2022-09-09T05:23:56;15.68;90.18
72106;SHT30;59975;47.646;18.318;2022-09-09T05:29:45;15.73;89.81
72106;SHT30;59975;47.646;18.318;2022-09-09T05:32:11;15.81;89.90
72106;SHT30;59975;47.646;18.318;2022-09-09T05:44:45;16.03;88.44
72106;SHT30;59975;47.646;18.318;2022-09-09T05:47:15;16.03;87.86
72106;SHT30;59975;47.646;18.318;2022-09-09T05:59:54;16.13;88.19
72106;SHT30;59975;47.646;18.318;2022-09-09T06:06:10;16.23;87.54
72106;SHT30;59975;47.646;18.318;2022-09-09T06:12:00;16.37;87.00
72106;SHT30;59975;47.646;18.318;2022-09-09T06:21:18;16.60;87.32
72106;SHT30;59975;47.646;18.318;2022-09-09T06:23:46;16.68;86.47
72106;SHT30;59975;47.646;18.318;2022-09-09T06:26:21;16.80;86.91
72106;SHT30;59975;47.646;18.318;2022-09-09T06:28:52;16.95;86.24
72106;SHT30;59975;47.646;18.318;2022-09-09T06:31:20;17.12;85.66
72106;SHT30;59975;47.646;18.318;2022-09-09T06:33:50;17.35;85.29
72106;SHT30;59975;47.646;18.318;2022-09-09T06:43:26;17.90;83.11
72106;SHT30;59975;47.646;18.318;2022-09-09T09:34:24;22.24;60.09
72106;SHT30;59975;47.646;18.318;2022-09-09T09:37:17;22.26;60.45
72106;SHT30;59975;47.646;18.318;2022-09-09T09:40:18;21.94;59.60
72106;SHT30;59975;47.646;18.318;2022-09-09T09:43:05;22.58;55.94
72106;SHT30;59975;47.646;18.318;2022-09-09T09:45:43;22.65;55.62
72106;SHT30;59975;47.646;18.318;2022-09-09T09:48:14;22.69;57.17
72106;SHT30;59975;47.646;18.318;2022-09-09T10:03:57;22.82;54.03
72106;SHT30;59975;47.646;18.318;2022-09-09T10:06:36;22.89;54.42
72106;SHT30;59975;47.646;18.318;2022-09-09T10:09:21;22.90;52.83
72106;SHT30;59975;47.646;18.318;2022-09-09T13:58:17;27.15;40.08
72106;SHT30;59975;47.646;18.318;2022-09-09T14:00:46;27.31;39.08
72106;SHT30;59975;47.646;18.318;2022-09-09T14:06:35;27.30;38.90
72106;SHT30;59975;47.646;18.318;2022-09-09T14:09:05;26.98;38.51
72106;SHT30;59975;47.646;18.318;2022-09-09T14:11:32;26.72;39.60
72106;SHT30;59975;47.646;18.318;2022-09-09T14:13:59;26.70;38.63
72106;SHT30;59975;47.646;18.318;2022-09-09T14:16:28;26.84;39.68
72106;SHT30;59975;47.646;18.318;2022-09-09T14:18:55;26.73;40.47
72106;SHT30;59975;47.646;18.318;2022-09-09T14:21:22;26.69;39.92
72106;SHT30;59975;47.646;18.318;2022-09-09T14:23:47;26.67;40.16
72106;SHT30;59975;47.646;18.318;2022-09-09T14:29:36;26.43;40.64
72106;SHT30;59975;47.646;18.318;2022-09-09T14:32:02;26.36;41.31
72106;SHT30;59975;47.646;18.318;2022-09-09T14:37:50;26.26;40.33
72106;SHT30;59975;47.646;18.318;2022-09-09T14:46:59;25.79;42.11
72106;SHT30;59975;47.646;18.318;2022-09-09T14:49:25;25.69;42.79
72106;SHT30;59975;47.646;18.318;2022-09-09T14:51:50;25.65;41.48
72106;SHT30;59975;47.646;18.318;2022-09-09T14:54:17;25.59;42.39
72106;SHT30;59975;47.646;18.318;2022-09-09T14:56:44;25.58;43.00
72106;SHT30;59975;47.646;18.318;2022-09-09T14:59:09;25.59;43.64
72106;SHT30;59975;47.646;18.318;2022-09-09T15:01:35;25.54;44.02
72106;SHT30;59975;47.646;18.318;2022-09-09T15:04:04;25.51;43.83
72106;SHT30;59975;47.646;18.318;2022-09-09T15:06:31;25.58;43.18
72106;SHT30;59975;47.646;18.318;2022-09-09T15:12:20;25.59;43.30
72106;SHT30;59975;47.646;18.318;2022-09-09T15:14:47;25.58;44.30
72106;SHT30;59975;47.646;18.318;2022-09-09T15:20:36;25.35;45.38
72106;SHT30;59975;47.646;18.318;2022-09-09T15:26:25;25.35;45.55
72106;SHT30;59975;47.646;18.318;2022-09-09T15:28:51;25.28;45.39
72106;SHT30;59975;47.646;18.318;2022-09-09T15:34:39;25.08;46.74
72106;SHT30;59975;47.646;18.318;2022-09-09T15:40:28;24.93;47.26
72106;SHT30;59975;47.646;18.318;2022-09-09T15:42:53;24.91;47.58
72106;SHT30;59975;47.646;18.318;2022-09-09T15:48:41;24.80;46.73
72106;SHT30;59975;47.646;18.318;2022-09-09T15:51:07;24.79;46.78
72106;SHT30;59975;47.646;18.318;2022-09-09T15:53:39;24.69;47.62
72106;SHT30;59975;47.646;18.318;2022-09-09T15:59:29;24.55;47.12
72106;SHT30;59975;47.646;18.318;2022-09-09T16:01:56;24.53;46.91
72106;SHT30;59975;47.646;18.318;2022-09-09T16:04:23;24.46;47.54
72106;SHT30;59975;47.646;18.318;2022-09-09T16:06:51;24.49;47.41
72106;SHT30;59975;47.646;18.318;2022-09-09T16:09:19;24.48;47.27
72106;SHT30;59975;47.646;18.318;2022-09-09T16:11:45;24.46;47.67
72106;SHT30;59975;47.646;18.318;2022-09-09T16:20:56;24.30;48.23
72106;SHT30;59975;47.646;18.318;2022-09-09T16:23:22;24.22;48.05
72106;SHT30;59975;47.646;18.318;2022-09-09T16:25:53;24.12;48.47
72106;SHT30;59975;47.646;18.318;2022-09-09T16:31:41;24.04;48.31
72106;SHT30;59975;47.646;18.318;2022-09-09T16:34:08;24.01;48.91
72106;SHT30;59975;47.646;18.318;2022-09-09T16:36:36;23.92;49.19
72106;SHT30;59975;47.646;18.318;2022-09-09T16:42:27;23.75;48.80
72106;SHT30;59975;47.646;18.318;2022-09-09T16:44:53;23.64;49.21
72106;SHT30;59975;47.646;18.318;2022-09-09T16:57:24;23.30;48.76
72106;SHT30;59975;47.646;18.318;2022-09-09T17:03:13;23.14;49.24
72106;SHT30;59975;47.646;18.318;2022-09-09T17:05:40;23.04;49.68
72106;SHT30;59975;47.646;18.318;2022-09-09T17:08:06;23.00;49.88
72106;SHT30;59975;47.646;18.318;2022-09-09T17:10:33;22.90;50.29
72106;SHT30;59975;47.646;18.318;2022-09-09T17:13:00;22.83;50.57
72106;SHT30;59975;47.646;18.318;2022-09-09T17:18:50;22.66;51.39
72106;SHT30;59975;47.646;18.318;2022-09-09T17:24:39;22.58;53.63
72106;SHT30;59975;47.646;18.318;2022-09-09T17:27:06;22.55;54.28
72106;SHT30;59975;47.646;18.318;2022-09-09T17:29:33;22.48;54.93
72106;SHT30;59975;47.646;18.318;2022-09-09T17:35:24;22.39;55.36
72106;SHT30;59975;47.646;18.318;2022-09-09T17:47:55;22.12;56.76
72106;SHT30;59975;47.646;18.318;2022-09-09T17:57:06;21.91;57.76
72106;SHT30;59975;47.646;18.318;2022-09-09T17:59:32;21.84;58.37
72106;SHT30;59975;47.646;18.318;2022-09-09T18:02:00;21.78;59.48
72106;SHT30;59975;47.646;18.318;2022-09-09T18:04:26;21.74;59.46
72106;SHT30;59975;47.646;18.318;2022-09-09T18:06:53;21.70;59.64
72106;SHT30;59975;47.646;18.318;2022-09-09T18:09:21;21.67;60.00
72106;SHT30;59975;47.646;18.318;2022-09-09T18:11:50;21.61;59.90
72106;SHT30;59975;47.646;18.318;2022-09-09T18:14:17;21.60;60.66
72106;SHT30;59975;47.646;18.318;2022-09-09T18:16:45;21.55;61.72
72106;SHT30;59975;47.646;18.318;2022-09-09T18:22:33;21.54;61.55
72106;SHT30;59975;47.646;18.318;2022-09-09T18:24:58;21.54;62.73
72106;SHT30;59975;47.646;18.318;2022-09-09T18:30:46;21.54;63.32
72106;SHT30;59975;47.646;18.318;2022-09-09T18:33:13;21.51;63.71
72106;SHT30;59975;47.646;18.318;2022-09-09T18:39:01;21.47;65.00
72106;SHT30;59975;47.646;18.318;2022-09-09T18:44:50;21.27;65.71
72106;SHT30;59975;47.646;18.318;2022-09-09T18:47:17;21.20;65.93
72106;SHT30;59975;47.646;18.318;2022-09-09T18:49:44;21.14;66.21
72106;SHT30;59975;47.646;18.318;2022-09-09T18:52:11;21.10;66.36
72106;SHT30;59975;47.646;18.318;2022-09-09T18:54:37;21.07;64.16
72106;SHT30;59975;47.646;18.318;2022-09-09T18:57:03;21.06;65.41
72106;SHT30;59975;47.646;18.318;2022-09-09T18:59:30;21.00;66.46
72106;SHT30;59975;47.646;18.318;2022-09-09T19:01:56;20.95;67.37
72106;SHT30;59975;47.646;18.318;2022-09-09T19:04:23;20.89;67.93
72106;SHT30;59975;47.646;18.318;2022-09-09T19:10:11;20.82;69.24
72106;SHT30;59975;47.646;18.318;2022-09-09T19:16:07;20.79;69.96
72106;SHT30;59975;47.646;18.318;2022-09-09T19:18:35;20.78;70.19
72106;SHT30;59975;47.646;18.318;2022-09-09T19:21:13;20.76;70.70
72106;SHT30;59975;47.646;18.318;2022-09-09T19:23:43;20.79;70.74
72106;SHT30;59975;47.646;18.318;2022-09-09T19:26:09;20.78;70.00
72106;SHT30;59975;47.646;18.318;2022-09-09T19:35:19;20.82;70.56
72106;SHT30;59975;47.646;18.318;2022-09-09T19:37:45;20.81;68.66
72106;SHT30;59975;47.646;18.318;2022-09-09T19:40:12;20.82;68.05
72106;SHT30;59975;47.646;18.318;2022-09-09T19:42:37;20.81;68.37
72106;SHT30;59975;47.646;18.318;2022-09-09T19:45:06;20.78;68.36
72106;SHT30;59975;47.646;18.318;2022-09-09T19:47:35;20.76;69.07
72106;SHT30;59975;47.646;18.318;2022-09-09T19:56:44;20.71;68.06
72106;SHT30;59975;47.646;18.318;2022-09-09T19:59:11;20.69;68.61
72106;SHT30;59975;47.646;18.318;2022-09-09T20:01:40;20.67;67.95
72106;SHT30;59975;47.646;18.318;2022-09-09T20:04:07;20.68;69.34
72106;SHT30;59975;47.646;18.318;2022-09-09T20:06:36;20.67;70.07
72106;SHT30;59975;47.646;18.318;2022-09-09T20:09:06;20.68;70.92
72106;SHT30;59975;47.646;18.318;2022-09-09T20:11:33;20.65;72.76
72106;SHT30;59975;47.646;18.318;2022-09-09T20:14:00;20.67;74.75
72106;SHT30;59975;47.646;18.318;2022-09-09T20:23:09;20.47;76.09
72106;SHT30;59975;47.646;18.318;2022-09-09T20:25:36;20.45;76.39
72106;SHT30;59975;47.646;18.318;2022-09-09T20:28:03;20.44;75.72
72106;SHT30;59975;47.646;18.318;2022-09-09T20:30:29;20.37;75.85
72106;SHT30;59975;47.646;18.318;2022-09-09T20:36:20;20.32;76.92
72106;SHT30;59975;47.646;18.318;2022-09-09T20:38:47;20.28;77.19
72106;SHT30;59975;47.646;18.318;2022-09-09T20:41:16;20.24;77.25
72106;SHT30;59975;47.646;18.318;2022-09-09T20:59:28;20.01;76.46
72106;SHT30;59975;47.646;18.318;2022-09-09T21:01:55;19.94;76.48
72106;SHT30;59975;47.646;18.318;2022-09-09T21:07:45;19.91;75.90
72106;SHT30;59975;47.646;18.318;2022-09-09T21:10:12;19.87;75.86
72106;SHT30;59975;47.646;18.318;2022-09-09T21:12:39;19.81;75.86
72106;SHT30;59975;47.646;18.318;2022-09-09T21:15:06;19.80;76.61
72106;SHT30;59975;47.646;18.318;2022-09-09T21:17:32;19.76;76.42
72106;SHT30;59975;47.646;18.318;2022-09-09T21:23:21;19.62;76.52
72106;SHT30;59975;47.646;18.318;2022-09-09T21:25:48;19.59;76.78
72106;SHT30;59975;47.646;18.318;2022-09-09T21:28:16;19.56;77.45
72106;SHT30;59975;47.646;18.318;2022-09-09T21:34:04;19.49;77.97
72106;SHT30;59975;47.646;18.318;2022-09-09T21:36:30;19.50;77.94
72106;SHT30;59975;47.646;18.318;2022-09-09T21:38:56;19.45;78.25
72106;SHT30;59975;47.646;18.318;2022-09-09T21:41:23;19.40;78.46
72106;SHT30;59975;47.646;18.318;2022-09-09T21:47:10;19.45;78.30
72106;SHT30;59975;47.646;18.318;2022-09-09T21:49:36;19.40;77.86
72106;SHT30;59975;47.646;18.318;2022-09-09T21:52:03;19.39;77.74
72106;SHT30;59975;47.646;18.318;2022-09-09T21:54:29;19.33;77.91
72106;SHT30;59975;47.646;18.318;2022-09-09T21:56:58;19.30;77.88
72106;SHT30;59975;47.646;18.318;2022-09-09T21:59:25;19.30;78.22
72106;SHT30;59975;47.646;18.318;2022-09-09T22:01:51;19.27;78.59
72106;SHT30;59975;47.646;18.318;2022-09-09T22:04:18;19.27;79.05
72106;SHT30;59975;47.646;18.318;2022-09-09T22:13:28;19.25;77.33
72106;SHT30;59975;47.646;18.318;2022-09-09T22:22:39;19.26;77.14
72106;SHT30;59975;47.646;18.318;2022-09-09T22:25:06;19.27;77.34
72106;SHT30;59975;47.646;18.318;2022-09-09T22:27:33;19.29;76.77
72106;SHT30;59975;47.646;18.318;2022-09-09T22:33:23;19.23;77.16
72106;SHT30;59975;47.646;18.318;2022-09-09T22:35:51;19.26;76.03
72106;SHT30;59975;47.646;18.318;2022-09-09T22:38:17;19.23;75.85
72106;SHT30;59975;47.646;18.318;2022-09-09T22:40:42;19.20;75.69
72106;SHT30;59975;47.646;18.318;2022-09-09T22:43:13;19.18;74.91
72106;SHT30;59975;47.646;18.318;2022-09-09T22:52:24;19.15;73.64
72106;SHT30;59975;47.646;18.318;2022-09-09T22:58:11;19.06;74.40
72106;SHT30;59975;47.646;18.318;2022-09-09T23:00:38;19.03;74.44
72106;SHT30;59975;47.646;18.318;2022-09-09T23:03:07;18.98;74.80
72106;SHT30;59975;47.646;18.318;2022-09-09T23:05:34;19.01;73.31
72106;SHT30;59975;47.646;18.318;2022-09-09T23:11:27;18.96;73.47
72106;SHT30;59975;47.646;18.318;2022-09-09T23:13:58;18.89;73.88
72106;SHT30;59975;47.646;18.318;2022-09-09T23:16:28;18.91;74.22
72106;SHT30;59975;47.646;18.318;2022-09-09T23:18:54;18.84;73.70
72106;SHT30;59975;47.646;18.318;2022-09-09T23:21:23;18.85;73.60
72106;SHT30;59975;47.646;18.318;2022-09-09T23:23:52;18.87;73.09
72106;SHT30;59975;47.646;18.318;2022-09-09T23:26:20;18.85;72.80
72106;SHT30;59975;47.646;18.318;2022-09-09T23:28:48;18.79;73.16
72106;SHT30;59975;47.646;18.318;2022-09-09T23:31:17;18.72;73.58
72106;SHT30;59975;47.646;18.318;2022-09-09T23:33:45;18.71;73.77
72106;SHT30;59975;47.646;18.318;2022-09-09T23:39:36;18.65;73.67
72106;SHT30;59975;47.646;18.318;2022-09-09T23:42:03;18.67;73.82
72106;SHT30;59975;47.646;18.318;2022-09-09T23:44:33;18.61;73.96
72106;SHT30;59975;47.646;18.318;2022-09-09T23:47:00;18.57;74.21
72106;SHT30;59975;47.646;18.318;2022-09-09T23:49:28;18.52;74.50
72106;SHT30;59975;47.646;18.318;2022-09-09T23:51:54;18.48;74.72
72106;SHT30;59975;47.646;18.318;2022-09-09T23:54:20;18.47;74.74
72106;SHT30;59975;47.646;18.318;2022-09-09T23:56:46;18.44;74.48
72106;SHT30;59975;47.646;18.318;2022-09-09T23:59:12;18.40;74.54
